sensor_id;sensor_type;location;lat;lon;timestamp;temperature;humidity
17563;DHT22;8899;50.874;4.348;2022-07-06T00:00:11;15.60;99.90
17563;DHT22;8899;50.874;4.348;2022-07-06T00:02:43;15.60;99.90
17563;DHT22;8899;50.874;4.348;2022-07-06T00:05:13;15.50;99.90
17563;DHT22;8899;50.874;4.348;2022-07-06T00:07:47;15.40;99.90
17563;DHT22;8899;50.874;4.348;2022-07-06T00:10:30;15.40;99.90
17563;DHT22;8899;50.874;4.348;2022-07-06T00:12:59;15.40;99.90
17563;DHT22;8899;50.874;4.348;2022-07-06T00:15:29;15.30;99.90
17563;DHT22;8899;50.874;4.348;2022-07-06T00:18:00;15.30;99.90
17563;DHT22;8899;50.874;4.348;2022-07-06T00:20:29;15.20;99.90
17563;DHT22;8899;50.874;4.348;2022-07-06T00:22:59;15.20;99.90
17563;DHT22;8899;50.874;4.348;2022-07-06T00:25:33;15.20;99.90
17563;DHT22;8899;50.874;4.348;2022-07-06T00:28:14;15.20;99.90
17563;DHT22;8899;50.874;4.348;2022-07-06T00:30:50;15.20;99.90
17563;DHT22;8899;50.874;4.348;2022-07-06T00:33:26;15.20;99.90
17563;DHT22;8899;50.874;4.348;2022-07-06T00:35:53;15.20;99.90
17563;DHT22;8899;50.874;4.348;2022-07-06T00:38:20;15.30;99.90
17563;DHT22;8899;50.874;4.348;2022-07-06T00:40:48;15.20;99.90
17563;DHT22;8899;50.874;4.348;2022-07-06T00:43:18;15.20;99.90
17563;DHT22;8899;50.874;4.348;2022-07-06T00:45:48;15.30;99.90
17563;DHT22;8899;50.874;4.348;2022-07-06T00:48:16;15.30;99.90
17563;DHT22;8899;50.874;4.348;2022-07-06T00:50:43;15.30;99.90
17563;DHT22;8899;50.874;4.348;2022-07-06T00:53:13;15.20;99.90
17563;DHT22;8899;50.874;4.348;2022-07-06T00:55:42;15.10;99.90
17563;DHT22;8899;50.874;4.348;2022-07-06T00:58:12;15.10;99.90
17563;DHT22;8899;50.874;4.348;2022-07-06T01:00:43;15.00;99.90
17563;DHT22;8899;50.874;4.348;2022-07-06T01:03:10;15.00;99.90
17563;DHT22;8899;50.874;4.348;2022-07-06T01:05:47;15.00;99.90
17563;DHT22;8899;50.874;4.348;2022-07-06T01:08:15;15.10;99.90
17563;DHT22;8899;50.874;4.348;2022-07-06T01:11:10;15.00;99.90
17563;DHT22;8899;50.874;4.348;2022-07-06T01:13:40;15.10;99.90
17563;DHT22;8899;50.874;4.348;2022-07-06T01:16:10;15.10;99.90
17563;DHT22;8899;50.874;4.348;2022-07-06T01:18:42;15.10;99.90
17563;DHT22;8899;50.874;4.348;2022-07-06T01:21:14;15.10;99.90
17563;DHT22;8899;50.874;4.348;2022-07-06T01:23:51;15.00;99.90
17563;DHT22;8899;50.874;4.348;2022-07-06T01:26:37;14.90;99.90
17563;DHT22;8899;50.874;4.348;2022-07-06T01:29:08;14.90;99.90
17563;DHT22;8899;50.874;4.348;2022-07-06T01:31:51;14.90;99.90
17563;DHT22;8899;50.874;4.348;2022-07-06T01:34:22;15.00;99.90
17563;DHT22;8899;50.874;4.348;2022-07-06T01:37:00;15.10;99.90
17563;DHT22;8899;50.874;4.348;2022-07-06T01:39:45;15.10;99.90
17563;DHT22;8899;50.874;4.348;2022-07-06T01:42:12;15.00;99.90
17563;DHT22;8899;50.874;4.348;2022-07-06T01:44:45;15.00;99.90
17563;DHT22;8899;50.874;4.348;2022-07-06T01:47:19;15.00;99.90
17563;DHT22;8899;50.874;4.348;2022-07-06T01:49:50;15.00;99.90
17563;DHT22;8899;50.874;4.348;2022-07-06T01:52:32;15.00;99.90
17563;DHT22;8899;50.874;4.348;2022-07-06T01:55:05;14.90;99.90
17563;DHT22;8899;50.874;4.348;2022-07-06T01:57:40;14.80;99.90
17563;DHT22;8899;50.874;4.348;2022-07-06T02:00:27;14.70;99.90
17563;DHT22;8899;50.874;4.348;2022-07-06T02:03:02;14.60;99.90
17563;DHT22;8899;50.874;4.348;2022-07-06T02:05:31;14.50;99.90
17563;DHT22;8899;50.874;4.348;2022-07-06T02:08:04;14.40;99.90
17563;DHT22;8899;50.874;4.348;2022-07-06T02:10:53;14.30;99.90
17563;DHT22;8899;50.874;4.348;2022-07-06T02:13:21;14.40;99.90
17563;DHT22;8899;50.874;4.348;2022-07-06T02:15:50;14.30;99.90
17563;DHT22;8899;50.874;4.348;2022-07-06T02:18:21;14.30;99.90
17563;DHT22;8899;50.874;4.348;2022-07-06T02:20:56;14.30;99.90
17563;DHT22;8899;50.874;4.348;2022-07-06T02:23:27;14.40;99.90
17563;DHT22;8899;50.874;4.348;2022-07-06T02:25:57;14.30;99.90
17563;DHT22;8899;50.874;4.348;2022-07-06T02:28:27;14.40;99.90
17563;DHT22;8899;50.874;4.348;2022-07-06T02:31:01;14.30;99.90
17563;DHT22;8899;50.874;4.348;2022-07-06T02:33:30;14.30;99.90
17563;DHT22;8899;50.874;4.348;2022-07-06T02:36:09;14.30;99.90
17563;DHT22;8899;50.874;4.348;2022-07-06T02:38:40;14.30;99.90
17563;DHT22;8899;50.874;4.348;2022-07-06T02:41:11;14.40;99.90
17563;DHT22;8899;50.874;4.348;2022-07-06T02:43:46;14.40;99.90
17563;DHT22;8899;50.874;4.348;2022-07-06T02:46:30;14.50;99.90
17563;DHT22;8899;50.874;4.348;2022-07-06T02:48:58;14.60;99.90
17563;DHT22;8899;50.874;4.348;2022-07-06T02:51:29;14.50;99.90
17563;DHT22;8899;50.874;4.348;2022-07-06T02:54:07;14.40;99.90
17563;DHT22;8899;50.874;4.348;2022-07-06T02:56:38;14.30;99.90
17563;DHT22;8899;50.874;4.348;2022-07-06T02:59:18;14.30;99.90
17563;DHT22;8899;50.874;4.348;2022-07-06T03:01:48;14.20;99.90
17563;DHT22;8899;50.874;4.348;2022-07-06T03:04:18;14.20;99.90
17563;DHT22;8899;50.874;4.348;2022-07-06T03:06:54;14.10;99.90
17563;DHT22;8899;50.874;4.348;2022-07-06T03:09:25;14.10;99.90
17563;DHT22;8899;50.874;4.348;2022-07-06T03:11:55;14.00;99.90
17563;DHT22;8899;50.874;4.348;2022-07-06T03:14:26;14.20;99.90
17563;DHT22;8899;50.874;4.348;2022-07-06T03:17:08;14.20;99.90
17563;DHT22;8899;50.874;4.348;2022-07-06T03:19:43;14.20;99.90
17563;DHT22;8899;50.874;4.348;2022-07-06T03:22:10;14.20;99.90
17563;DHT22;8899;50.874;4.348;2022-07-06T03:24:40;14.10;99.90
17563;DHT22;8899;50.874;4.348;2022-07-06T03:27:09;14.10;99.90
17563;DHT22;8899;50.874;4.348;2022-07-06T03:29:54;14.10;99.90
17563;DHT22;8899;50.874;4.348;2022-07-06T03:32:27;14.10;99.90
17563;DHT22;8899;50.874;4.348;2022-07-06T03:35:01;14.00;99.90
17563;DHT22;8899;50.874;4.348;2022-07-06T03:37:35;14.20;99.90
17563;DHT22;8899;50.874;4.348;2022-07-06T03:40:17;14.40;99.90
17563;DHT22;8899;50.874;4.348;2022-07-06T03:42:47;14.40;99.90
17563;DHT22;8899;50.874;4.348;2022-07-06T03:45:17;14.50;99.90
17563;DHT22;8899;50.874;4.348;2022-07-06T03:47:47;14.60;99.90
17563;DHT22;8899;50.874;4.348;2022-07-06T03:50:16;14.50;99.90
17563;DHT22;8899;50.874;4.348;2022-07-06T03:52:47;14.40;99.90
17563;DHT22;8899;50.874;4.348;2022-07-06T03:55:16;14.40;99.90
17563;DHT22;8899;50.874;4.348;2022-07-06T03:57:49;14.40;99.90
17563;DHT22;8899;50.874;4.348;2022-07-06T04:00:20;14.40;99.90
17563;DHT22;8899;50.874;4.348;2022-07-06T04:02:50;14.40;99.90
17563;DHT22;8899;50.874;4.348;2022-07-06T04:05:21;14.40;99.90
17563;DHT22;8899;50.874;4.348;2022-07-06T04:07:59;14.50;99.90
17563;DHT22;8899;50.874;4.348;2022-07-06T04:10:35;14.50;99.90
17563;DHT22;8899;50.874;4.348;2022-07-06T04:13:05;14.50;99.90
17563;DHT22;8899;50.874;4.348;2022-07-06T04:15:34;14.40;99.90
17563;DHT22;8899;50.874;4.348;2022-07-06T04:18:05;14.40;99.90
17563;DHT22;8899;50.874;4.348;2022-07-06T04:20:35;14.40;99.90
17563;DHT22;8899;50.874;4.348;2022-07-06T04:23:04;14.30;99.90
17563;DHT22;8899;50.874;4.348;2022-07-06T04:25:34;14.30;99.90
17563;DHT22;8899;50.874;4.348;2022-07-06T04:28:02;14.30;99.90
17563;DHT22;8899;50.874;4.348;2022-07-06T04:30:30;14.40;99.90
17563;DHT22;8899;50.874;4.348;2022-07-06T04:32:57;14.40;99.90
17563;DHT22;8899;50.874;4.348;2022-07-06T04:35:26;14.50;99.90
17563;DHT22;8899;50.874;4.348;2022-07-06T04:37:54;14.40;99.90
17563;DHT22;8899;50.874;4.348;2022-07-06T04:40:25;14.50;99.90
17563;DHT22;8899;50.874;4.348;2022-07-06T04:42:56;14.50;99.90
17563;DHT22;8899;50.874;4.348;2022-07-06T04:45:25;14.50;99.90
17563;DHT22;8899;50.874;4.348;2022-07-06T04:47:54;14.50;99.90
17563;DHT22;8899;50.874;4.348;2022-07-06T04:50:21;14.50;99.90
17563;DHT22;8899;50.874;4.348;2022-07-06T04:52:50;14.50;99.90
17563;DHT22;8899;50.874;4.348;2022-07-06T04:55:20;14.50;99.90
17563;DHT22;8899;50.874;4.348;2022-07-06T04:57:47;14.60;99.90
17563;DHT22;8899;50.874;4.348;2022-07-06T05:00:16;14.60;99.90
17563;DHT22;8899;50.874;4.348;2022-07-06T05:02:45;14.60;99.90
17563;DHT22;8899;50.874;4.348;2022-07-06T05:05:12;14.60;99.90
17563;DHT22;8899;50.874;4.348;2022-07-06T05:07:39;14.60;99.90
17563;DHT22;8899;50.874;4.348;2022-07-06T05:10:08;14.60;99.90
17563;DHT22;8899;50.874;4.348;2022-07-06T05:12:38;14.70;99.90
17563;DHT22;8899;50.874;4.348;2022-07-06T05:15:07;14.70;99.90
17563;DHT22;8899;50.874;4.348;2022-07-06T05:17:39;14.80;99.90
17563;DHT22;8899;50.874;4.348;2022-07-06T05:20:08;14.80;99.90
17563;DHT22;8899;50.874;4.348;2022-07-06T05:22:35;14.70;99.90
17563;DHT22;8899;50.874;4.348;2022-07-06T05:25:04;14.80;99.90
17563;DHT22;8899;50.874;4.348;2022-07-06T05:27:32;14.80;99.90
17563;DHT22;8899;50.874;4.348;2022-07-06T05:30:00;14.80;99.90
17563;DHT22;8899;50.874;4.348;2022-07-06T05:32:28;14.90;99.90
17563;DHT22;8899;50.874;4.348;2022-07-06T05:34:57;14.90;99.90
17563;DHT22;8899;50.874;4.348;2022-07-06T05:37:24;15.00;99.90
17563;DHT22;8899;50.874;4.348;2022-07-06T05:39:51;15.00;99.90
17563;DHT22;8899;50.874;4.348;2022-07-06T05:42:19;15.10;99.90
17563;DHT22;8899;50.874;4.348;2022-07-06T05:44:47;15.10;99.90
17563;DHT22;8899;50.874;4.348;2022-07-06T05:47:15;15.20;99.90
17563;DHT22;8899;50.874;4.348;2022-07-06T05:50:01;15.40;99.90
17563;DHT22;8899;50.874;4.348;2022-07-06T05:52:43;15.60;99.90
17563;DHT22;8899;50.874;4.348;2022-07-06T05:55:11;15.70;99.90
17563;DHT22;8899;50.874;4.348;2022-07-06T05:57:43;15.80;99.90
17563;DHT22;8899;50.874;4.348;2022-07-06T06:00:12;16.00;99.90
17563;DHT22;8899;50.874;4.348;2022-07-06T06:02:41;16.00;99.90
17563;DHT22;8899;50.874;4.348;2022-07-06T06:05:10;16.10;99.90
17563;DHT22;8899;50.874;4.348;2022-07-06T06:07:39;16.30;99.90
17563;DHT22;8899;50.874;4.348;2022-07-06T06:10:10;16.30;99.90
17563;DHT22;8899;50.874;4.348;2022-07-06T06:12:40;16.40;99.90
17563;DHT22;8899;50.874;4.348;2022-07-06T06:15:08;16.40;99.90
17563;DHT22;8899;50.874;4.348;2022-07-06T06:17:36;16.50;99.90
17563;DHT22;8899;50.874;4.348;2022-07-06T06:20:04;16.70;99.90
17563;DHT22;8899;50.874;4.348;2022-07-06T06:22:46;16.90;99.90
17563;DHT22;8899;50.874;4.348;2022-07-06T06:25:13;16.80;99.90
17563;DHT22;8899;50.874;4.348;2022-07-06T06:27:42;16.80;99.90
17563;DHT22;8899;50.874;4.348;2022-07-06T06:30:10;17.00;99.90
17563;DHT22;8899;50.874;4.348;2022-07-06T06:32:40;17.10;99.90
17563;DHT22;8899;50.874;4.348;2022-07-06T06:35:07;17.10;99.90
17563;DHT22;8899;50.874;4.348;2022-07-06T06:37:41;17.20;99.90
17563;DHT22;8899;50.874;4.348;2022-07-06T06:40:11;17.30;99.90
17563;DHT22;8899;50.874;4.348;2022-07-06T06:42:39;17.40;99.90
17563;DHT22;8899;50.874;4.348;2022-07-06T06:45:12;17.60;99.90
17563;DHT22;8899;50.874;4.348;2022-07-06T06:47:40;17.50;99.90
17563;DHT22;8899;50.874;4.348;2022-07-06T06:50:08;17.80;99.90
17563;DHT22;8899;50.874;4.348;2022-07-06T06:52:38;17.90;99.90
17563;DHT22;8899;50.874;4.348;2022-07-06T06:55:12;18.00;99.90
17563;DHT22;8899;50.874;4.348;2022-07-06T06:57:41;18.20;99.90
17563;DHT22;8899;50.874;4.348;2022-07-06T07:00:12;18.20;99.90
17563;DHT22;8899;50.874;4.348;2022-07-06T07:02:41;18.50;99.90
17563;DHT22;8899;50.874;4.348;2022-07-06T07:05:14;18.60;99.90
17563;DHT22;8899;50.874;4.348;2022-07-06T07:07:43;18.20;99.90
17563;DHT22;8899;50.874;4.348;2022-07-06T07:10:21;18.30;99.90
17563;DHT22;8899;50.874;4.348;2022-07-06T07:12:49;18.40;99.90
17563;DHT22;8899;50.874;4.348;2022-07-06T07:15:18;18.80;99.90
17563;DHT22;8899;50.874;4.348;2022-07-06T07:17:45;19.30;99.90
17563;DHT22;8899;50.874;4.348;2022-07-06T07:20:13;19.50;99.90
17563;DHT22;8899;50.874;4.348;2022-07-06T07:22:41;19.40;99.90
17563;DHT22;8899;50.874;4.348;2022-07-06T07:25:08;19.10;99.90
17563;DHT22;8899;50.874;4.348;2022-07-06T07:27:36;19.20;99.90
17563;DHT22;8899;50.874;4.348;2022-07-06T07:30:04;19.00;99.90
17563;DHT22;8899;50.874;4.348;2022-07-06T07:32:31;18.70;99.90
17563;DHT22;8899;50.874;4.348;2022-07-06T07:34:58;18.80;99.90
17563;DHT22;8899;50.874;4.348;2022-07-06T07:37:26;18.70;99.90
17563;DHT22;8899;50.874;4.348;2022-07-06T07:39:53;18.30;99.90
17563;DHT22;8899;50.874;4.348;2022-07-06T07:42:22;18.70;99.90
17563;DHT22;8899;50.874;4.348;2022-07-06T07:44:51;19.20;99.90
17563;DHT22;8899;50.874;4.348;2022-07-06T07:47:18;19.40;99.90
17563;DHT22;8899;50.874;4.348;2022-07-06T07:49:45;19.70;99.90
17563;DHT22;8899;50.874;4.348;2022-07-06T07:52:28;19.70;99.90
17563;DHT22;8899;50.874;4.348;2022-07-06T07:55:09;19.60;99.90
17563;DHT22;8899;50.874;4.348;2022-07-06T07:57:41;19.30;99.90
17563;DHT22;8899;50.874;4.348;2022-07-06T08:00:18;19.30;99.90
17563;DHT22;8899;50.874;4.348;2022-07-06T08:02:51;19.60;99.90
17563;DHT22;8899;50.874;4.348;2022-07-06T08:05:26;19.40;99.90
17563;DHT22;8899;50.874;4.348;2022-07-06T08:07:55;19.70;99.90
17563;DHT22;8899;50.874;4.348;2022-07-06T08:10:24;19.90;99.90
17563;DHT22;8899;50.874;4.348;2022-07-06T08:12:54;20.20;99.90
17563;DHT22;8899;50.874;4.348;2022-07-06T08:15:24;20.10;99.90
17563;DHT22;8899;50.874;4.348;2022-07-06T08:17:54;20.10;99.90
17563;DHT22;8899;50.874;4.348;2022-07-06T08:20:22;20.10;99.90
17563;DHT22;8899;50.874;4.348;2022-07-06T08:22:51;20.20;99.90
17563;DHT22;8899;50.874;4.348;2022-07-06T08:25:27;20.30;99.90
17563;DHT22;8899;50.874;4.348;2022-07-06T08:27:56;20.40;99.90
17563;DHT22;8899;50.874;4.348;2022-07-06T08:30:42;20.60;99.90
17563;DHT22;8899;50.874;4.348;2022-07-06T08:33:14;20.30;99.90
17563;DHT22;8899;50.874;4.348;2022-07-06T08:35:48;20.30;99.90
17563;DHT22;8899;50.874;4.348;2022-07-06T08:38:29;20.50;99.90
17563;DHT22;8899;50.874;4.348;2022-07-06T08:40:57;20.90;99.90
17563;DHT22;8899;50.874;4.348;2022-07-06T08:43:26;20.80;99.90
17563;DHT22;8899;50.874;4.348;2022-07-06T08:45:59;20.80;99.90
17563;DHT22;8899;50.874;4.348;2022-07-06T08:48:36;21.00;99.90
17563;DHT22;8899;50.874;4.348;2022-07-06T08:51:07;21.20;99.90
17563;DHT22;8899;50.874;4.348;2022-07-06T08:53:35;20.90;99.90
17563;DHT22;8899;50.874;4.348;2022-07-06T08:56:05;20.60;99.90
17563;DHT22;8899;50.874;4.348;2022-07-06T08:58:35;20.10;99.90
17563;DHT22;8899;50.874;4.348;2022-07-06T09:01:12;20.00;99.90
17563;DHT22;8899;50.874;4.348;2022-07-06T09:03:43;20.60;99.90
17563;DHT22;8899;50.874;4.348;2022-07-06T09:06:23;21.10;99.90
17563;DHT22;8899;50.874;4.348;2022-07-06T09:08:53;21.60;99.90
17563;DHT22;8899;50.874;4.348;2022-07-06T09:11:24;21.90;99.90
17563;DHT22;8899;50.874;4.348;2022-07-06T09:13:59;22.20;99.90
17563;DHT22;8899;50.874;4.348;2022-07-06T09:16:31;21.50;99.90
17563;DHT22;8899;50.874;4.348;2022-07-06T09:19:00;21.50;99.90
17563;DHT22;8899;50.874;4.348;2022-07-06T09:21:31;21.70;99.90
17563;DHT22;8899;50.874;4.348;2022-07-06T09:24:05;21.40;99.90
17563;DHT22;8899;50.874;4.348;2022-07-06T09:26:38;21.20;99.90
17563;DHT22;8899;50.874;4.348;2022-07-06T09:29:08;21.30;99.90
17563;DHT22;8899;50.874;4.348;2022-07-06T09:31:42;21.70;99.90
17563;DHT22;8899;50.874;4.348;2022-07-06T09:34:14;22.20;99.90
17563;DHT22;8899;50.874;4.348;2022-07-06T09:36:47;22.50;99.90
17563;DHT22;8899;50.874;4.348;2022-07-06T09:39:21;21.90;99.90
17563;DHT22;8899;50.874;4.348;2022-07-06T09:42:02;22.00;99.90
17563;DHT22;8899;50.874;4.348;2022-07-06T09:44:35;22.10;99.90
17563;DHT22;8899;50.874;4.348;2022-07-06T09:47:06;21.80;99.90
17563;DHT22;8899;50.874;4.348;2022-07-06T09:49:36;22.10;99.90
17563;DHT22;8899;50.874;4.348;2022-07-06T09:52:10;22.20;99.90
17563;DHT22;8899;50.874;4.348;2022-07-06T09:54:49;22.30;99.90
17563;DHT22;8899;50.874;4.348;2022-07-06T09:57:31;22.40;99.90
17563;DHT22;8899;50.874;4.348;2022-07-06T10:00:09;22.50;99.90
17563;DHT22;8899;50.874;4.348;2022-07-06T10:02:40;22.50;99.90
17563;DHT22;8899;50.874;4.348;2022-07-06T10:05:10;22.70;99.90
17563;DHT22;8899;50.874;4.348;2022-07-06T10:08:17;22.50;99.90
17563;DHT22;8899;50.874;4.348;2022-07-06T10:10:46;22.20;99.90
17563;DHT22;8899;50.874;4.348;2022-07-06T10:13:27;22.20;99.90
17563;DHT22;8899;50.874;4.348;2022-07-06T10:15:56;22.40;99.90
17563;DHT22;8899;50.874;4.348;2022-07-06T10:18:29;22.80;99.90
17563;DHT22;8899;50.874;4.348;2022-07-06T10:20:57;23.20;99.90
17563;DHT22;8899;50.874;4.348;2022-07-06T10:23:26;23.40;99.90
17563;DHT22;8899;50.874;4.348;2022-07-06T10:26:02;23.20;99.90
17563;DHT22;8899;50.874;4.348;2022-07-06T10:28:35;23.50;99.90
17563;DHT22;8899;50.874;4.348;2022-07-06T10:31:24;23.70;99.90
17563;DHT22;8899;50.874;4.348;2022-07-06T10:33:56;23.90;99.90
17563;DHT22;8899;50.874;4.348;2022-07-06T10:36:27;23.40;99.90
17563;DHT22;8899;50.874;4.348;2022-07-06T10:39:01;23.40;99.90
17563;DHT22;8899;50.874;4.348;2022-07-06T10:41:50;23.30;99.90
17563;DHT22;8899;50.874;4.348;2022-07-06T10:44:26;22.80;99.90
17563;DHT22;8899;50.874;4.348;2022-07-06T10:46:54;23.10;99.90
17563;DHT22;8899;50.874;4.348;2022-07-06T10:49:26;23.20;99.90
17563;DHT22;8899;50.874;4.348;2022-07-06T10:52:08;23.10;99.90
17563;DHT22;8899;50.874;4.348;2022-07-06T10:54:51;23.40;99.90
17563;DHT22;8899;50.874;4.348;2022-07-06T10:57:27;24.00;99.90
17563;DHT22;8899;50.874;4.348;2022-07-06T11:00:09;24.60;99.90
17563;DHT22;8899;50.874;4.348;2022-07-06T11:03:31;24.50;99.90
17563;DHT22;8899;50.874;4.348;2022-07-06T11:06:09;23.90;99.90
17563;DHT22;8899;50.874;4.348;2022-07-06T11:08:48;23.80;99.90
17563;DHT22;8899;50.874;4.348;2022-07-06T11:11:24;24.20;99.90
17563;DHT22;8899;50.874;4.348;2022-07-06T11:14:28;24.80;99.90
17563;DHT22;8899;50.874;4.348;2022-07-06T11:17:23;24.70;99.90
17563;DHT22;8899;50.874;4.348;2022-07-06T11:20:14;24.70;99.90
17563;DHT22;8899;50.874;4.348;2022-07-06T11:22:59;24.30;99.90
17563;DHT22;8899;50.874;4.348;2022-07-06T11:25:47;24.40;99.90
17563;DHT22;8899;50.874;4.348;2022-07-06T11:28:16;24.30;99.90
17563;DHT22;8899;50.874;4.348;2022-07-06T11:30:56;23.40;99.90
17563;DHT22;8899;50.874;4.348;2022-07-06T11:33:36;22.90;99.90
17563;DHT22;8899;50.874;4.348;2022-07-06T11:36:26;22.70;99.90
17563;DHT22;8899;50.874;4.348;2022-07-06T11:39:03;23.30;99.90
17563;DHT22;8899;50.874;4.348;2022-07-06T11:41:44;23.70;99.90
17563;DHT22;8899;50.874;4.348;2022-07-06T11:44:15;25.00;99.90
17563;DHT22;8899;50.874;4.348;2022-07-06T11:46:58;25.20;99.90
17563;DHT22;8899;50.874;4.348;2022-07-06T11:49:30;25.50;99.90
17563;DHT22;8899;50.874;4.348;2022-07-06T11:52:11;25.40;99.90
17563;DHT22;8899;50.874;4.348;2022-07-06T11:54:42;24.70;99.90
17563;DHT22;8899;50.874;4.348;2022-07-06T11:57:33;23.80;99.90
17563;DHT22;8899;50.874;4.348;2022-07-06T12:00:14;24.80;99.90
17563;DHT22;8899;50.874;4.348;2022-07-06T12:03:03;25.40;99.90
17563;DHT22;8899;50.874;4.348;2022-07-06T12:05:34;25.60;99.90
17563;DHT22;8899;50.874;4.348;2022-07-06T12:08:08;26.20;99.90
17563;DHT22;8899;50.874;4.348;2022-07-06T12:10:49;26.70;99.90
17563;DHT22;8899;50.874;4.348;2022-07-06T12:13:26;26.50;99.90
17563;DHT22;8899;50.874;4.348;2022-07-06T12:15:54;24.80;99.90
17563;DHT22;8899;50.874;4.348;2022-07-06T12:18:38;24.80;99.90
17563;DHT22;8899;50.874;4.348;2022-07-06T12:21:12;24.10;99.90
17563;DHT22;8899;50.874;4.348;2022-07-06T12:24:05;25.00;99.90
17563;DHT22;8899;50.874;4.348;2022-07-06T12:26:54;25.20;99.90
17563;DHT22;8899;50.874;4.348;2022-07-06T12:29:26;25.80;99.90
17563;DHT22;8899;50.874;4.348;2022-07-06T12:31:57;24.80;99.90
17563;DHT22;8899;50.874;4.348;2022-07-06T12:34:36;25.00;99.90
17563;DHT22;8899;50.874;4.348;2022-07-06T12:37:28;25.30;99.90
17563;DHT22;8899;50.874;4.348;2022-07-06T12:40:00;26.00;99.90
17563;DHT22;8899;50.874;4.348;2022-07-06T12:42:56;26.80;99.90
17563;DHT22;8899;50.874;4.348;2022-07-06T12:45:34;27.50;99.90
17563;DHT22;8899;50.874;4.348;2022-07-06T12:48:06;27.80;99.90
17563;DHT22;8899;50.874;4.348;2022-07-06T12:50:42;28.80;99.90
17563;DHT22;8899;50.874;4.348;2022-07-06T12:53:26;30.60;99.90
17563;DHT22;8899;50.874;4.348;2022-07-06T12:56:16;29.90;99.90
17563;DHT22;8899;50.874;4.348;2022-07-06T12:59:06;30.60;99.90
17563;DHT22;8899;50.874;4.348;2022-07-06T13:01:37;30.50;99.90
17563;DHT22;8899;50.874;4.348;2022-07-06T13:04:31;30.40;99.90
17563;DHT22;8899;50.874;4.348;2022-07-06T13:07:05;28.50;99.90
17563;DHT22;8899;50.874;4.348;2022-07-06T13:09:34;27.60;99.90
17563;DHT22;8899;50.874;4.348;2022-07-06T13:12:27;25.80;99.90
17563;DHT22;8899;50.874;4.348;2022-07-06T13:15:08;26.90;99.90
17563;DHT22;8899;50.874;4.348;2022-07-06T13:17:46;25.90;99.90
17563;DHT22;8899;50.874;4.348;2022-07-06T13:20:16;24.30;99.90
17563;DHT22;8899;50.874;4.348;2022-07-06T13:22:46;24.10;99.90
17563;DHT22;8899;50.874;4.348;2022-07-06T13:25:15;24.30;99.90
17563;DHT22;8899;50.874;4.348;2022-07-06T13:27:46;24.60;99.90
17563;DHT22;8899;50.874;4.348;2022-07-06T13:30:20;25.70;99.90
17563;DHT22;8899;50.874;4.348;2022-07-06T13:32:48;26.80;99.90
17563;DHT22;8899;50.874;4.348;2022-07-06T13:35:16;26.80;99.90
17563;DHT22;8899;50.874;4.348;2022-07-06T13:37:46;25.20;99.90
17563;DHT22;8899;50.874;4.348;2022-07-06T13:40:24;25.70;99.90
17563;DHT22;8899;50.874;4.348;2022-07-06T13:42:52;27.00;99.90
17563;DHT22;8899;50.874;4.348;2022-07-06T13:45:43;27.40;99.90
17563;DHT22;8899;50.874;4.348;2022-07-06T13:48:14;28.60;99.90
17563;DHT22;8899;50.874;4.348;2022-07-06T13:50:50;29.60;99.90
17563;DHT22;8899;50.874;4.348;2022-07-06T13:53:18;29.00;99.90
17563;DHT22;8899;50.874;4.348;2022-07-06T13:55:46;30.50;99.90
17563;DHT22;8899;50.874;4.348;2022-07-06T13:58:13;30.10;99.90
17563;DHT22;8899;50.874;4.348;2022-07-06T14:00:43;28.10;99.90
17563;DHT22;8899;50.874;4.348;2022-07-06T14:03:18;28.50;99.90
17563;DHT22;8899;50.874;4.348;2022-07-06T14:05:48;27.60;99.90
17563;DHT22;8899;50.874;4.348;2022-07-06T14:08:23;27.30;99.90
17563;DHT22;8899;50.874;4.348;2022-07-06T14:11:12;26.50;99.90
17563;DHT22;8899;50.874;4.348;2022-07-06T14:13:44;25.50;99.90
17563;DHT22;8899;50.874;4.348;2022-07-06T14:16:14;25.40;99.90
17563;DHT22;8899;50.874;4.348;2022-07-06T14:18:53;25.20;99.90
17563;DHT22;8899;50.874;4.348;2022-07-06T14:21:39;25.70;99.90
17563;DHT22;8899;50.874;4.348;2022-07-06T14:24:09;25.60;99.90
17563;DHT22;8899;50.874;4.348;2022-07-06T14:26:40;25.80;99.90
17563;DHT22;8899;50.874;4.348;2022-07-06T14:29:08;25.00;99.90
17563;DHT22;8899;50.874;4.348;2022-07-06T14:31:56;24.70;99.90
17563;DHT22;8899;50.874;4.348;2022-07-06T14:34:30;25.00;99.90
17563;DHT22;8899;50.874;4.348;2022-07-06T14:37:11;25.00;99.90
17563;DHT22;8899;50.874;4.348;2022-07-06T14:39:43;24.70;99.90
17563;DHT22;8899;50.874;4.348;2022-07-06T14:42:15;24.60;99.90
17563;DHT22;8899;50.874;4.348;2022-07-06T14:44:44;24.70;99.90
17563;DHT22;8899;50.874;4.348;2022-07-06T14:47:14;24.50;99.90
17563;DHT22;8899;50.874;4.348;2022-07-06T14:49:41;26.10;99.90
17563;DHT22;8899;50.874;4.348;2022-07-06T14:52:09;27.80;99.90
17563;DHT22;8899;50.874;4.348;2022-07-06T14:54:36;29.10;99.90
17563;DHT22;8899;50.874;4.348;2022-07-06T14:57:04;30.50;99.90
17563;DHT22;8899;50.874;4.348;2022-07-06T14:59:35;30.60;99.90
17563;DHT22;8899;50.874;4.348;2022-07-06T15:02:02;29.70;99.90
17563;DHT22;8899;50.874;4.348;2022-07-06T15:04:32;28.40;99.90
17563;DHT22;8899;50.874;4.348;2022-07-06T15:07:00;29.50;99.90
17563;DHT22;8899;50.874;4.348;2022-07-06T15:09:46;29.10;99.90
17563;DHT22;8899;50.874;4.348;2022-07-06T15:12:39;29.90;99.90
17563;DHT22;8899;50.874;4.348;2022-07-06T15:15:07;30.00;99.90
17563;DHT22;8899;50.874;4.348;2022-07-06T15:17:36;29.30;99.90
17563;DHT22;8899;50.874;4.348;2022-07-06T15:20:22;27.60;99.90
17563;DHT22;8899;50.874;4.348;2022-07-06T15:22:54;27.50;99.90
17563;DHT22;8899;50.874;4.348;2022-07-06T15:28:08;25.60;99.90
17563;DHT22;8899;50.874;4.348;2022-07-06T15:30:35;25.00;99.90
17563;DHT22;8899;50.874;4.348;2022-07-06T15:33:04;24.50;99.90
17563;DHT22;8899;50.874;4.348;2022-07-06T15:35:34;24.30;99.90
17563;DHT22;8899;50.874;4.348;2022-07-06T15:38:03;23.90;99.90
17563;DHT22;8899;50.874;4.348;2022-07-06T15:41:06;23.80;99.90
17563;DHT22;8899;50.874;4.348;2022-07-06T15:43:35;23.80;99.90
17563;DHT22;8899;50.874;4.348;2022-07-06T15:46:04;23.80;99.90
17563;DHT22;8899;50.874;4.348;2022-07-06T15:48:34;23.80;99.90
17563;DHT22;8899;50.874;4.348;2022-07-06T15:51:09;24.20;99.90
17563;DHT22;8899;50.874;4.348;2022-07-06T15:53:39;24.50;99.90
17563;DHT22;8899;50.874;4.348;2022-07-06T15:56:11;24.70;99.90
17563;DHT22;8899;50.874;4.348;2022-07-06T15:58:44;24.90;99.90
17563;DHT22;8899;50.874;4.348;2022-07-06T16:01:15;26.00;99.90
17563;DHT22;8899;50.874;4.348;2022-07-06T16:03:43;26.70;99.90
17563;DHT22;8899;50.874;4.348;2022-07-06T16:06:21;27.40;99.90
17563;DHT22;8899;50.874;4.348;2022-07-06T16:08:50;26.10;99.90
17563;DHT22;8899;50.874;4.348;2022-07-06T16:11:20;25.10;99.90
17563;DHT22;8899;50.874;4.348;2022-07-06T16:13:49;25.00;99.90
17563;DHT22;8899;50.874;4.348;2022-07-06T16:16:37;24.80;99.90
17563;DHT22;8899;50.874;4.348;2022-07-06T16:19:05;24.90;99.90
17563;DHT22;8899;50.874;4.348;2022-07-06T16:21:35;24.60;99.90
17563;DHT22;8899;50.874;4.348;2022-07-06T16:24:03;24.60;99.90
17563;DHT22;8899;50.874;4.348;2022-07-06T16:26:31;23.70;99.90